createdAt,value
2018-01-01T00:00:22.007Z,9.33
2018-01-01T00:01:32.192Z,9.29
2018-01-01T00:02:42.347Z,9.3
2018-01-01T00:03:52.545Z,9.33
2018-01-01T00:05:02.743Z,9.26
2018-01-01T00:06:12.962Z,9.3
2018-01-01T00:07:22.943Z,9.25
2018-01-01T00:08:33.102Z,9.33
2018-01-01T00:09:43.269Z,9.3
2018-01-01T00:10:53.527Z,9.37
2018-01-01T00:12:03.713Z,9.27
2018-01-01T00:13:13.502Z,9.34
2018-01-01T00:14:23.659Z,9.34
2018-01-01T00:15:33.835Z,9.29
2018-01-01T00:16:44.041Z,9.3
2018-01-01T00:17:54.197Z,9.35
2018-01-01T00:19:04.387Z,9.34
2018-01-01T00:20:14.675Z,9.35
2018-01-01T00:21:24.526Z,9.3
2018-01-01T00:22:34.684Z,9.38
2018-01-01T00:23:44.571Z,9.34
2018-01-01T00:24:54.741Z,9.38
2018-01-01T00:26:04.898Z,9.37
2018-01-01T00:27:15.050Z,9.35
2018-01-01T00:28:25.241Z,9.35
2018-01-01T00:29:35.467Z,9.25
2018-01-01T00:30:45.650Z,9.15
2018-01-01T00:31:55.821Z,9.02
2018-01-01T00:33:06.020Z,8.95
2018-01-01T00:34:16.201Z,8.9
2018-01-01T00:35:26.434Z,8.86
2018-01-01T00:36:36.592Z,8.8
2018-01-01T00:37:46.744Z,8.64
2018-01-01T00:38:57.864Z,8.66
2018-01-01T00:40:07.685Z,8.52
2018-01-01T00:41:17.856Z,8.53
2018-01-01T00:42:28.001Z,8.39
2018-01-01T00:43:38.224Z,8.37
2018-01-01T00:44:48.423Z,8.31
2018-01-01T00:45:58.582Z,8.27
2018-01-01T00:47:08.830Z,8.24
2018-01-01T00:48:18.733Z,8.25
2018-01-01T00:49:28.943Z,8.15
2018-01-01T00:50:39.113Z,8.13
2018-01-01T00:51:49.369Z,8.21
2018-01-01T00:52:59.577Z,8.16
2018-01-01T00:54:09.727Z,8.17
2018-01-01T00:55:19.940Z,8.13
2018-01-01T00:56:30.169Z,8.12
2018-01-01T00:57:40.342Z,8.07
2018-01-01T00:58:50.658Z,8.13
2018-01-01T01:00:01.501Z,8.17
2018-01-01T01:01:11.657Z,8.13
2018-01-01T01:02:21.797Z,8.13
2018-01-01T01:03:31.955Z,8.16
2018-01-01T01:04:42.154Z,8.16
2018-01-01T01:05:52.068Z,8.13
2018-01-01T01:07:02.265Z,8.16
2018-01-01T01:08:12.414Z,8.12
2018-01-01T01:09:22.643Z,8.16
2018-01-01T01:10:32.791Z,8.15
2018-01-01T01:11:42.947Z,8.13
2018-01-01T01:12:53.127Z,8.16
2018-01-01T01:14:03.311Z,8.17
2018-01-01T01:15:13.443Z,8.21
2018-01-01T01:16:23.799Z,8.16
2018-01-01T01:17:33.950Z,8.2
2018-01-01T01:18:44.102Z,8.21
2018-01-01T01:19:54.264Z,8.17
2018-01-01T01:21:04.449Z,8.21
2018-01-01T01:22:14.587Z,8.16
2018-01-01T01:23:24.761Z,8.15
2018-01-01T01:24:34.657Z,8.2
2018-01-01T01:25:44.820Z,8.23
2018-01-01T01:26:54.978Z,8.15
2018-01-01T01:28:05.177Z,8.16
2018-01-01T01:29:15.451Z,8.17
2018-01-01T01:30:25.632Z,8.21
2018-01-01T01:31:35.904Z,8.23
2018-01-01T01:32:46.125Z,8.2
2018-01-01T01:33:56.329Z,8.17
2018-01-01T01:35:06.490Z,8.21
2018-01-01T01:36:16.644Z,8.17
2018-01-01T01:37:26.802Z,8.2
2018-01-01T01:38:37.083Z,8.21
2018-01-01T01:39:47.358Z,8.21
2018-01-01T01:40:57.545Z,8.13
2018-01-01T01:42:07.955Z,8.16
2018-01-01T01:43:18.201Z,8.15
2018-01-01T01:44:28.339Z,8.12
2018-01-01T01:45:38.522Z,8.2
2018-01-01T01:46:48.692Z,8.23
2018-01-01T01:47:58.918Z,8.16
2018-01-01T01:49:09.146Z,8.2
2018-01-01T01:50:19.364Z,8.17
2018-01-01T01:51:29.526Z,8.1
2018-01-01T01:52:39.576Z,8.17
2018-01-01T01:53:49.473Z,8.12
2018-01-01T01:54:59.361Z,8.1
2018-01-01T01:56:09.528Z,7.98
2018-01-01T01:57:19.698Z,8.02
2018-01-01T01:58:29.997Z,8.02
2018-01-01T01:59:40.193Z,8.03
2018-01-01T02:00:50.336Z,8.07
2018-01-01T02:02:00.645Z,8.09
2018-01-01T02:03:10.805Z,8.06
2018-01-01T02:04:20.950Z,8.03
2018-01-01T02:05:31.076Z,7.97
2018-01-01T02:06:41.254Z,7.88
2018-01-01T02:07:51.407Z,7.97
2018-01-01T02:09:01.405Z,7.87
2018-01-01T02:10:11.592Z,7.85
2018-01-01T02:11:21.748Z,7.88
2018-01-01T02:12:31.901Z,7.85
2018-01-01T02:13:42.052Z,7.92
2018-01-01T02:14:52.190Z,7.9
2018-01-01T02:16:02.320Z,7.84
2018-01-01T02:17:12.508Z,7.85
2018-01-01T02:18:22.774Z,7.85
2018-01-01T02:19:33.000Z,7.87
2018-01-01T02:20:43.139Z,7.82
2018-01-01T02:21:53.383Z,7.82
2018-01-01T02:23:03.638Z,7.91
2018-01-01T02:24:14.819Z,7.82
2018-01-01T02:25:25.029Z,7.82
2018-01-01T02:26:35.222Z,7.92
2018-01-01T02:27:45.396Z,7.85
2018-01-01T02:28:55.547Z,7.82
2018-01-01T02:30:05.680Z,7.87
2018-01-01T02:31:15.642Z,7.85
2018-01-01T02:32:25.786Z,7.82
2018-01-01T02:33:35.922Z,7.87
2018-01-01T02:34:46.099Z,7.92
2018-01-01T02:35:56.248Z,7.8
2018-01-01T02:37:06.392Z,7.9
2018-01-01T02:38:16.624Z,7.87
2018-01-01T02:39:26.821Z,7.85
2018-01-01T02:40:37.027Z,7.8
2018-01-01T02:41:47.164Z,7.85
2018-01-01T02:42:57.333Z,7.87
2018-01-01T02:44:07.214Z,7.82
2018-01-01T02:45:17.433Z,7.84
2018-01-01T02:46:27.577Z,7.84
2018-01-01T02:47:37.732Z,7.8
2018-01-01T02:48:47.622Z,7.82
2018-01-01T02:49:57.780Z,7.84
2018-01-01T02:51:07.970Z,7.82
2018-01-01T02:52:18.269Z,7.9
2018-01-01T02:53:28.636Z,7.91
2018-01-01T02:54:38.793Z,7.82
2018-01-01T02:55:48.951Z,7.9
2018-01-01T02:56:59.144Z,7.82
2018-01-01T02:58:09.281Z,7.82
2018-01-01T02:59:19.696Z,7.9
2018-01-01T03:00:29.831Z,7.9
2018-01-01T03:01:39.720Z,7.87
2018-01-01T03:02:49.888Z,7.87
2018-01-01T03:04:00.027Z,7.87
2018-01-01T03:05:10.188Z,7.88
2018-01-01T03:06:20.416Z,7.82
2018-01-01T03:07:30.573Z,7.85
2018-01-01T03:08:40.757Z,7.84
2018-01-01T03:09:51.035Z,7.82
2018-01-01T03:11:01.191Z,7.87
2018-01-01T03:12:11.465Z,7.87
2018-01-01T03:13:21.609Z,7.77
2018-01-01T03:14:31.751Z,7.76
2018-01-01T03:15:41.901Z,7.7
2018-01-01T03:16:52.035Z,7.73
2018-01-01T03:18:02.204Z,7.85
2018-01-01T03:19:13.390Z,7.8
2018-01-01T03:20:24.503Z,7.79
2018-01-01T03:21:34.668Z,7.82
2018-01-01T03:22:44.534Z,7.79
2018-01-01T03:23:54.819Z,7.72
2018-01-01T03:25:04.993Z,7.73
2018-01-01T03:26:15.151Z,7.73
2018-01-01T03:27:25.295Z,7.79
2018-01-01T03:28:35.531Z,7.7
2018-01-01T03:29:46.647Z,7.7
2018-01-01T03:30:56.846Z,7.69
2018-01-01T03:32:07.008Z,7.66
2018-01-01T03:33:17.165Z,7.74
2018-01-01T03:34:27.347Z,7.74
2018-01-01T03:35:37.508Z,7.64
2018-01-01T03:36:47.649Z,7.73
2018-01-01T03:37:57.877Z,7.62
2018-01-01T03:39:08.085Z,7.67
2018-01-01T03:40:18.337Z,7.59
2018-01-01T03:41:28.478Z,7.64
2018-01-01T03:42:38.701Z,7.67
2018-01-01T03:43:48.917Z,7.61
2018-01-01T03:44:59.081Z,7.52
2018-01-01T03:46:09.316Z,7.56
2018-01-01T03:47:19.203Z,7.51
2018-01-01T03:48:29.384Z,7.54
2018-01-01T03:49:39.581Z,7.54
2018-01-01T03:50:49.816Z,7.47
2018-01-01T03:51:59.971Z,7.47
2018-01-01T03:53:10.088Z,7.49
2018-01-01T03:54:20.257Z,7.54
2018-01-01T03:55:30.393Z,7.56
2018-01-01T03:56:40.563Z,7.48
2018-01-01T03:57:50.700Z,7.44
2018-01-01T03:59:00.891Z,7.49
2018-01-01T04:00:11.032Z,7.49
2018-01-01T04:01:21.159Z,7.47
2018-01-01T04:02:31.280Z,7.52
2018-01-01T04:03:41.417Z,7.58
2018-01-01T04:04:51.553Z,7.52
2018-01-01T04:06:01.729Z,7.51
2018-01-01T04:07:11.878Z,7.48
2018-01-01T04:08:22.006Z,7.51
2018-01-01T04:09:32.178Z,7.54
2018-01-01T04:10:42.317Z,7.47
2018-01-01T04:11:52.471Z,7.49
2018-01-01T04:13:02.614Z,7.43
2018-01-01T04:14:12.769Z,7.41
2018-01-01T04:15:22.643Z,7.34
2018-01-01T04:16:32.778Z,7.43
2018-01-01T04:17:42.949Z,7.31
2018-01-01T04:18:53.079Z,7.28
2018-01-01T04:20:03.353Z,7.2
2018-01-01T04:21:13.569Z,7.31
2018-01-01T04:22:23.762Z,7.22
2018-01-01T04:23:34.015Z,7.17
2018-01-01T04:24:44.160Z,7.17
2018-01-01T04:25:54.280Z,7.2
2018-01-01T04:27:04.415Z,7.2
2018-01-01T04:28:14.638Z,7.14
2018-01-01T04:29:24.853Z,7.03
2018-01-01T04:30:35.050Z,7.03
2018-01-01T04:31:45.177Z,7.03
2018-01-01T04:32:55.359Z,7.15
2018-01-01T04:34:05.600Z,7.11
2018-01-01T04:35:15.855Z,7.15
2018-01-01T04:36:26.075Z,7.06
2018-01-01T04:37:36.277Z,6.99
2018-01-01T04:38:46.579Z,7
2018-01-01T04:39:56.759Z,7
2018-01-01T04:41:06.935Z,7.1
2018-01-01T04:42:17.170Z,7
2018-01-01T04:43:27.309Z,6.96
2018-01-01T04:44:37.516Z,6.95
2018-01-01T04:45:47.761Z,6.96
2018-01-01T04:46:57.912Z,6.95
2018-01-01T04:48:08.092Z,6.9
2018-01-01T04:49:18.243Z,6.9
2018-01-01T04:50:28.395Z,6.84
2018-01-01T04:51:38.525Z,6.81
2018-01-01T04:52:48.653Z,6.79
2018-01-01T04:53:58.812Z,6.66
2018-01-01T04:55:08.969Z,6.64
2018-01-01T04:56:19.200Z,6.69
2018-01-01T04:57:28.557Z,6.63
2018-01-01T04:58:38.826Z,6.54
2018-01-01T04:59:48.974Z,6.52
2018-01-01T05:00:58.902Z,6.6
2018-01-01T05:02:09.032Z,6.52
2018-01-01T05:03:19.214Z,6.54
2018-01-01T05:04:29.392Z,6.49
2018-01-01T05:05:39.571Z,6.53
2018-01-01T05:06:49.797Z,6.59
2018-01-01T05:07:59.560Z,6.53
2018-01-01T05:09:09.717Z,6.57
2018-01-01T05:10:19.916Z,6.52
2018-01-01T05:11:29.906Z,6.53
2018-01-01T05:12:40.039Z,6.52
2018-01-01T05:13:50.187Z,6.63
2018-01-01T05:15:00.138Z,6.59
2018-01-01T05:16:10.284Z,6.53
2018-01-01T05:17:20.448Z,6.53
2018-01-01T05:18:30.591Z,6.62
2018-01-01T05:19:40.544Z,6.62
2018-01-01T05:20:50.667Z,6.52
2018-01-01T05:22:00.546Z,6.49
2018-01-01T05:23:10.682Z,6.57
2018-01-01T05:24:20.910Z,6.62
2018-01-01T05:25:31.070Z,6.57
2018-01-01T05:26:41.208Z,6.46
2018-01-01T05:27:51.414Z,6.54
2018-01-01T05:29:01.283Z,6.56
2018-01-01T05:30:11.405Z,6.49
2018-01-01T05:31:21.540Z,6.52
2018-01-01T05:32:31.701Z,6.46
2018-01-01T05:33:41.837Z,6.48
2018-01-01T05:34:52.046Z,6.49
2018-01-01T05:36:02.182Z,6.56
2018-01-01T05:37:12.320Z,6.56
2018-01-01T05:38:22.510Z,6.53
2018-01-01T05:39:32.736Z,6.39
2018-01-01T05:40:42.889Z,6.45
2018-01-01T05:41:53.011Z,6.39
2018-01-01T05:43:03.209Z,6.35
2018-01-01T05:44:13.529Z,6.39
2018-01-01T05:45:23.726Z,6.38
2018-01-01T05:46:33.961Z,6.28
2018-01-01T05:47:44.084Z,6.31
2018-01-01T05:48:54.277Z,6.31
2018-01-01T05:50:04.404Z,6.31
2018-01-01T05:51:14.530Z,6.38
2018-01-01T05:52:24.730Z,6.31
2018-01-01T05:53:34.877Z,6.36
2018-01-01T05:54:44.753Z,6.26
2018-01-01T05:55:54.926Z,6.41
2018-01-01T05:57:05.066Z,6.27
2018-01-01T05:58:15.306Z,6.31
2018-01-01T05:59:25.440Z,6.38
2018-01-01T06:00:35.340Z,6.39
2018-01-01T06:01:45.478Z,6.45
2018-01-01T06:02:55.652Z,6.45
2018-01-01T06:04:05.841Z,6.45
2018-01-01T06:05:16.137Z,6.45
2018-01-01T06:06:26.375Z,6.44
2018-01-01T06:07:36.513Z,6.41
2018-01-01T06:08:46.709Z,6.28
2018-01-01T06:09:56.887Z,6.3
2018-01-01T06:11:07.198Z,6.3
2018-01-01T06:12:17.438Z,6.24
2018-01-01T06:13:27.589Z,6.34
2018-01-01T06:14:37.727Z,6.31
2018-01-01T06:15:47.871Z,6.26
2018-01-01T06:16:57.995Z,6.26
2018-01-01T06:18:08.127Z,6.2
2018-01-01T06:19:18.253Z,6.23
2018-01-01T06:20:28.412Z,6.24
2018-01-01T06:21:38.548Z,6.2
2018-01-01T06:22:48.711Z,6.21
2018-01-01T06:23:58.723Z,6.19
2018-01-01T06:25:08.983Z,6.2
2018-01-01T06:26:19.110Z,6.17
2018-01-01T06:27:29.312Z,6.14
2018-01-01T06:28:39.545Z,6.16
2018-01-01T06:29:49.753Z,6.16
2018-01-01T06:30:59.961Z,6.16
2018-01-01T06:32:10.193Z,6.16
2018-01-01T06:33:20.354Z,6.24
2018-01-01T06:34:30.700Z,6.26
2018-01-01T06:35:40.856Z,6.23
2018-01-01T06:36:51.079Z,6.14
2018-01-01T06:38:01.270Z,6.14
2018-01-01T06:39:11.137Z,6.2
2018-01-01T06:40:21.268Z,6.16
2018-01-01T06:41:31.496Z,6.17
2018-01-01T06:42:41.684Z,6.11
2018-01-01T06:43:51.902Z,6.14
2018-01-01T06:45:03.017Z,6.17
2018-01-01T06:46:13.156Z,6.12
2018-01-01T06:47:23.284Z,6.14
2018-01-01T06:48:33.446Z,6.09
2018-01-01T06:49:43.575Z,6.14
2018-01-01T06:50:53.782Z,6.12
2018-01-01T06:52:03.983Z,6.11
2018-01-01T06:53:14.246Z,6.03
2018-01-01T06:54:24.397Z,6.05
2018-01-01T06:55:34.565Z,6.09
2018-01-01T06:56:44.744Z,6.09
2018-01-01T06:57:54.892Z,6.05
2018-01-01T06:59:05.029Z,6.05
2018-01-01T07:00:15.163Z,6.05
2018-01-01T07:01:25.282Z,6.06
2018-01-01T07:02:35.423Z,6.08
2018-01-01T07:03:45.746Z,6.06
2018-01-01T07:04:55.921Z,6.01
2018-01-01T07:06:06.171Z,6.03
2018-01-01T07:07:16.330Z,6.05
2018-01-01T07:08:26.519Z,6.05
2018-01-01T07:09:36.660Z,6.02
2018-01-01T07:10:46.800Z,5.98
2018-01-01T07:11:56.921Z,5.94
2018-01-01T07:13:07.088Z,5.91
2018-01-01T07:14:17.250Z,5.96
2018-01-01T07:15:27.478Z,5.94
2018-01-01T07:16:37.668Z,5.91
2018-01-01T07:17:47.814Z,5.88
2018-01-01T07:18:57.942Z,5.79
2018-01-01T07:20:08.205Z,5.91
2018-01-01T07:21:18.347Z,5.9
2018-01-01T07:22:28.488Z,5.77
2018-01-01T07:23:38.639Z,5.74
2018-01-01T07:24:48.775Z,5.83
2018-01-01T07:25:58.914Z,5.77
2018-01-01T07:27:08.829Z,5.75
2018-01-01T07:28:18.978Z,5.9
2018-01-01T07:29:29.164Z,5.88
2018-01-01T07:30:39.357Z,5.93
2018-01-01T07:31:49.584Z,5.9
2018-01-01T07:32:59.760Z,5.9
2018-01-01T07:34:09.895Z,5.9
2018-01-01T07:35:20.058Z,5.91
2018-01-01T07:36:30.182Z,5.84
2018-01-01T07:37:40.367Z,5.88
2018-01-01T07:38:50.493Z,5.9
2018-01-01T07:40:00.617Z,5.9
2018-01-01T07:41:10.492Z,5.9
2018-01-01T07:42:20.644Z,5.93
2018-01-01T07:43:30.812Z,5.84
2018-01-01T07:44:41.060Z,5.88
2018-01-01T07:45:51.036Z,5.82
2018-01-01T07:47:01.186Z,5.93
2018-01-01T07:48:11.343Z,5.98
2018-01-01T07:49:21.470Z,5.9
2018-01-01T07:50:31.397Z,5.93
2018-01-01T07:51:41.286Z,5.84
2018-01-01T07:52:51.484Z,5.75
2018-01-01T07:54:01.682Z,5.79
2018-01-01T07:55:11.824Z,5.82
2018-01-01T07:56:21.957Z,5.91
2018-01-01T07:57:32.083Z,5.79
2018-01-01T07:58:42.230Z,5.79
2018-01-01T07:59:52.494Z,5.94
2018-01-01T08:01:02.630Z,5.94
2018-01-01T08:02:12.780Z,5.9
2018-01-01T08:03:22.947Z,5.84
2018-01-01T08:04:33.065Z,5.79
2018-01-01T08:05:43.219Z,5.94
2018-01-01T08:06:53.096Z,5.91
2018-01-01T08:08:03.235Z,5.86
2018-01-01T08:09:13.377Z,5.9
2018-01-01T08:10:23.515Z,5.86
2018-01-01T08:11:33.664Z,5.91
2018-01-01T08:12:43.890Z,5.93
2018-01-01T08:13:54.046Z,5.96
2018-01-01T08:15:04.191Z,6.01
2018-01-01T08:16:14.313Z,6.02
2018-01-01T08:17:24.435Z,6.03
2018-01-01T08:18:34.681Z,6.08
2018-01-01T08:19:44.863Z,6.08
2018-01-01T08:20:55.086Z,6.08
2018-01-01T08:22:05.247Z,6.08
2018-01-01T08:23:15.476Z,6.06
2018-01-01T08:24:25.343Z,6.08
2018-01-01T08:25:35.522Z,6.17
2018-01-01T08:26:45.661Z,6.11
2018-01-01T08:27:55.907Z,6.14
2018-01-01T08:29:06.191Z,6.14
2018-01-01T08:30:16.347Z,6.03
2018-01-01T08:31:26.524Z,6.11
2018-01-01T08:32:36.700Z,6.16
2018-01-01T08:33:46.855Z,6.02
2018-01-01T08:34:57.010Z,6.03
2018-01-01T08:36:07.162Z,6.11
2018-01-01T08:37:17.283Z,6.19
2018-01-01T08:38:27.498Z,6.16
2018-01-01T08:39:37.638Z,6.26
2018-01-01T08:40:47.834Z,6.27
2018-01-01T08:41:58.006Z,6.26
2018-01-01T08:43:08.248Z,6.39
2018-01-01T08:44:19.458Z,6.42
2018-01-01T08:45:30.578Z,6.46
2018-01-01T08:46:40.752Z,6.52
2018-01-01T08:47:50.870Z,6.49
2018-01-01T08:49:01.009Z,6.54
2018-01-01T08:50:11.135Z,6.45
2018-01-01T08:51:20.942Z,6.54
2018-01-01T08:52:31.065Z,6.59
2018-01-01T08:53:41.256Z,6.56
2018-01-01T08:54:51.174Z,6.63
2018-01-01T08:56:01.316Z,6.6
2018-01-01T08:57:11.470Z,6.63
2018-01-01T08:58:21.615Z,6.53
2018-01-01T08:59:31.963Z,6.53
2018-01-01T09:00:41.840Z,6.59
2018-01-01T09:01:51.973Z,6.66
2018-01-01T09:03:01.861Z,6.63
2018-01-01T09:04:12.010Z,6.52
2018-01-01T09:05:22.192Z,6.66
2018-01-01T09:06:32.326Z,6.63
2018-01-01T09:07:42.472Z,6.63
2018-01-01T09:08:52.602Z,6.59
2018-01-01T09:10:02.752Z,6.64
2018-01-01T09:11:12.890Z,6.66
2018-01-01T09:12:24.031Z,6.63
2018-01-01T09:13:34.186Z,6.77
2018-01-01T09:14:44.373Z,6.62
2018-01-01T09:15:54.509Z,6.64
2018-01-01T09:17:04.403Z,6.69
2018-01-01T09:18:14.181Z,6.77
2018-01-01T09:19:24.324Z,6.79
2018-01-01T09:20:34.462Z,6.77
2018-01-01T09:21:44.635Z,6.74
2018-01-01T09:22:54.902Z,6.81
2018-01-01T09:24:05.088Z,6.78
2018-01-01T09:25:15.269Z,6.81
2018-01-01T09:26:25.495Z,6.87
2018-01-01T09:27:35.724Z,6.96
2018-01-01T09:28:45.912Z,6.95
2018-01-01T09:29:55.689Z,6.9
2018-01-01T09:31:05.929Z,6.89
2018-01-01T09:32:16.072Z,6.96
2018-01-01T09:33:26.232Z,6.96
2018-01-01T09:34:36.371Z,6.96
2018-01-01T09:35:46.537Z,6.93
2018-01-01T09:36:56.690Z,7
2018-01-01T09:38:06.855Z,6.97
2018-01-01T09:39:17.028Z,7
2018-01-01T09:40:28.263Z,7.06
2018-01-01T09:41:39.373Z,7.06
2018-01-01T09:42:49.177Z,7.1
2018-01-01T09:43:59.326Z,7.13
2018-01-01T09:45:09.551Z,7.13
2018-01-01T09:46:19.750Z,7.11
2018-01-01T09:47:29.708Z,7.14
2018-01-01T09:48:39.856Z,7.21
2018-01-01T09:49:50.059Z,7.22
2018-01-01T09:51:00.200Z,7.29
2018-01-01T09:52:10.354Z,7.29
2018-01-01T09:53:20.620Z,7.26
2018-01-01T09:54:30.885Z,7.34
2018-01-01T09:55:41.130Z,7.34
2018-01-01T09:56:51.288Z,7.44
2018-01-01T09:58:01.560Z,7.51
2018-01-01T09:59:11.700Z,7.55
2018-01-01T10:00:21.943Z,7.8
2018-01-01T10:01:32.208Z,8.07
2018-01-01T10:02:42.085Z,8.61
2018-01-01T10:03:52.254Z,9.05
2018-01-01T10:05:02.471Z,9.17
2018-01-01T10:06:12.627Z,9.62
2018-01-01T10:07:22.532Z,9.99
2018-01-01T10:08:32.238Z,10.45
2018-01-01T10:09:42.386Z,10.83
2018-01-01T10:10:52.150Z,11.25
2018-01-01T10:12:02.214Z,11.45
2018-01-01T10:13:12.425Z,11.89
2018-01-01T10:14:22.715Z,12.22
2018-01-01T10:15:32.886Z,12.37
2018-01-01T10:16:43.187Z,12.63
2018-01-01T10:17:54.071Z,13.08
2018-01-01T10:19:04.284Z,13.33
2018-01-01T10:20:14.440Z,13.58
2018-01-01T10:21:24.617Z,13.69
2018-01-01T10:22:34.804Z,13.82
2018-01-01T10:23:45.000Z,14.07
2018-01-01T10:24:54.913Z,14.1
2018-01-01T10:26:05.082Z,13.99
2018-01-01T10:27:15.239Z,13.91
2018-01-01T10:28:25.388Z,14.02
2018-01-01T10:29:35.599Z,14.06
2018-01-01T10:30:45.844Z,14.02
2018-01-01T10:31:56.061Z,14.03
2018-01-01T10:33:06.227Z,14.19
2018-01-01T10:34:16.392Z,14.21
2018-01-01T10:35:26.840Z,14.22
2018-01-01T10:36:37.017Z,14.37
2018-01-01T10:37:47.161Z,14.52
2018-01-01T10:38:57.384Z,14.44
2018-01-01T10:40:07.637Z,14.43
2018-01-01T10:41:17.910Z,14.25
2018-01-01T10:42:28.079Z,14.16
2018-01-01T10:43:38.230Z,14.21
2018-01-01T10:44:48.411Z,14.18
2018-01-01T10:45:58.667Z,14.28
2018-01-01T10:47:08.879Z,14.25
2018-01-01T10:48:19.202Z,14.39
2018-01-01T10:49:29.403Z,14.4
2018-01-01T10:50:39.610Z,14.43
2018-01-01T10:51:49.791Z,14.28
2018-01-01T10:52:59.982Z,14.54
2018-01-01T10:54:10.172Z,14.6
2018-01-01T10:55:20.500Z,14.4
2018-01-01T10:56:30.667Z,14.22
2018-01-01T10:57:40.579Z,14.07
2018-01-01T10:58:50.748Z,14.03
2018-01-01T11:00:00.944Z,14
2018-01-01T11:01:10.851Z,14.11
2018-01-01T11:02:21.025Z,14.02
2018-01-01T11:03:31.181Z,13.7
2018-01-01T11:04:41.356Z,13.41
2018-01-01T11:05:51.526Z,13
2018-01-01T11:07:01.103Z,12.63
2018-01-01T11:08:10.998Z,12.56
2018-01-01T11:09:21.168Z,12.56
2018-01-01T11:10:31.535Z,12.68
2018-01-01T11:11:41.717Z,12.82
2018-01-01T11:12:51.872Z,13
2018-01-01T11:14:02.076Z,13.01
2018-01-01T11:15:12.233Z,12.9
2018-01-01T11:16:22.460Z,12.93
2018-01-01T11:17:32.664Z,12.97
2018-01-01T11:18:42.933Z,13.16
2018-01-01T11:19:52.930Z,13.3
2018-01-01T11:21:03.103Z,13.21
2018-01-01T11:22:13.282Z,13.21
2018-01-01T11:23:23.571Z,13.26
2018-01-01T11:24:33.724Z,13.22
2018-01-01T11:25:43.902Z,13.34
2018-01-01T11:26:54.092Z,13.31
2018-01-01T11:28:04.245Z,13.34
2018-01-01T11:29:14.418Z,12.97
2018-01-01T11:30:24.616Z,12.74
2018-01-01T11:31:34.796Z,12.57
2018-01-01T11:32:44.693Z,12.39
2018-01-01T11:33:54.914Z,12.47
2018-01-01T11:35:05.114Z,12.34
2018-01-01T11:36:15.040Z,12.47
2018-01-01T11:37:25.216Z,12.5
2018-01-01T11:38:35.121Z,12.57
2018-01-01T11:39:45.286Z,12.59
2018-01-01T11:40:55.429Z,12.5
2018-01-01T11:42:05.621Z,12.38
2018-01-01T11:43:15.842Z,12.37
2018-01-01T11:44:26.019Z,12.37
2018-01-01T11:45:36.193Z,12.38
2018-01-01T11:46:47.316Z,12.47
2018-01-01T11:47:57.483Z,12.37
2018-01-01T11:49:07.699Z,12.42
2018-01-01T11:50:17.627Z,12.29
2018-01-01T11:51:27.773Z,12.08
2018-01-01T11:52:37.935Z,12.19
2018-01-01T11:53:47.880Z,12.16
2018-01-01T11:54:58.069Z,12.2
2018-01-01T11:56:08.292Z,12.29
2018-01-01T11:57:18.462Z,12.2
2018-01-01T11:58:28.621Z,12.01
2018-01-01T11:59:39.776Z,12.07
2018-01-01T12:00:49.707Z,11.89
2018-01-01T12:01:59.609Z,11.76
2018-01-01T12:03:09.819Z,11.62
2018-01-01T12:04:20.068Z,11.48
2018-01-01T12:05:29.990Z,11.35
2018-01-01T12:06:40.153Z,11.24
2018-01-01T12:07:51.052Z,11.12
2018-01-01T12:09:00.942Z,11.03
2018-01-01T12:10:11.098Z,10.92
2018-01-01T12:11:21.253Z,10.75
2018-01-01T12:12:31.428Z,10.7
2018-01-01T12:13:41.620Z,10.63
2018-01-01T12:14:51.878Z,10.63
2018-01-01T12:16:02.166Z,10.47
2018-01-01T12:20:42.190Z,10.13
2018-01-01T12:22:04.575Z,10.1
2018-01-01T12:23:15.865Z,10.05
2018-01-01T12:24:27.252Z,9.93
2018-01-01T12:25:38.615Z,9.78
2018-01-01T12:26:48.946Z,9.65
2018-01-01T12:27:58.854Z,9.53
2018-01-01T12:29:10.002Z,9.4
2018-01-01T12:30:20.319Z,9.38
2018-01-01T12:31:30.266Z,9.29
2018-01-01T12:32:40.611Z,9.33
2018-01-01T12:33:50.781Z,9.17
2018-01-01T12:35:01.034Z,9.04
2018-01-01T12:36:10.875Z,8.93
2018-01-01T12:37:20.623Z,8.82
2018-01-01T12:38:30.824Z,8.77
2018-01-01T12:39:41.017Z,8.8
2018-01-01T12:40:50.948Z,8.58
2018-01-01T12:42:01.128Z,8.55
2018-01-01T12:43:11.325Z,8.5
2018-01-01T12:44:21.516Z,8.31
2018-01-01T12:45:31.419Z,8.34
2018-01-01T12:46:41.360Z,8.35
2018-01-01T12:47:51.275Z,8.31
2018-01-01T12:49:01.496Z,8.32
2018-01-01T12:50:11.457Z,8.42
2018-01-01T12:51:22.500Z,8.39
2018-01-01T12:52:32.955Z,8.49
2018-01-01T12:53:43.799Z,8.42
2018-01-01T12:54:59.936Z,8.39
2018-01-01T12:56:29.968Z,8.42
2018-01-01T12:57:43.132Z,8.55
2018-01-01T12:59:00.734Z,8.49
2018-01-01T13:00:13.239Z,8.49
2018-01-01T13:01:26.881Z,8.53
2018-01-01T13:02:46.116Z,8.55
2018-01-01T13:03:57.508Z,8.53
2018-01-01T13:05:08.713Z,8.5
2018-01-01T13:06:20.332Z,8.48
2018-01-01T13:07:34.970Z,8.57
2018-01-01T13:08:46.997Z,8.49
2018-01-01T13:09:58.812Z,8.55
2018-01-01T13:11:10.793Z,8.42
2018-01-01T13:12:23.614Z,8.43
2018-01-01T13:13:35.514Z,8.45
2018-01-01T13:14:49.336Z,8.4
2018-01-01T13:16:00.407Z,8.45
2018-01-01T13:17:17.207Z,8.46
2018-01-01T13:18:31.206Z,8.49
2018-01-01T13:19:47.108Z,8.55
2018-01-01T13:21:06.001Z,8.5
2018-01-01T13:22:20.726Z,8.5
2018-01-01T13:23:30.997Z,8.53
2018-01-01T13:24:43.350Z,8.53
2018-01-01T13:25:58.730Z,8.48
2018-01-01T13:27:11.757Z,8.48
2018-01-01T13:28:22.438Z,8.46
2018-01-01T13:29:34.515Z,8.32
2018-01-01T13:30:45.741Z,8.32
2018-01-01T13:31:57.946Z,8.3
2018-01-01T13:33:13.370Z,8.23
2018-01-01T13:34:24.451Z,8.12
2018-01-01T13:35:35.531Z,8.21
2018-01-01T13:36:46.453Z,8.16
2018-01-01T13:38:00.554Z,8.16
2018-01-01T13:39:11.594Z,8.16
2018-01-01T13:40:22.385Z,8.17
2018-01-01T13:41:33.618Z,8.28
2018-01-01T13:42:44.920Z,8.27
2018-01-01T13:43:56.101Z,8.15
2018-01-01T13:45:06.741Z,8.2
2018-01-01T13:46:17.847Z,8.1
2018-01-01T13:47:29.051Z,8.07
2018-01-01T13:48:39.672Z,8.02
2018-01-01T13:49:50.674Z,7.95
2018-01-01T13:51:01.062Z,7.87
2018-01-01T13:52:11.646Z,7.87
2018-01-01T13:53:22.487Z,7.82
2018-01-01T13:54:33.248Z,7.9
2018-01-01T13:55:44.458Z,7.9
2018-01-01T13:56:55.265Z,7.84
2018-01-01T13:58:06.279Z,7.82
2018-01-01T13:59:18.439Z,7.8
2018-01-01T14:00:30.402Z,7.76
2018-01-01T14:01:44.491Z,7.74
2018-01-01T14:03:13.292Z,7.74
2018-01-01T14:04:31.387Z,7.7
2018-01-01T14:05:41.577Z,7.66
2018-01-01T14:06:53.284Z,7.61
2018-01-01T14:08:03.367Z,7.56
2018-01-01T14:09:13.694Z,7.47
2018-01-01T14:10:24.026Z,7.48
2018-01-01T14:11:34.332Z,7.48
2018-01-01T14:12:44.703Z,7.44
2018-01-01T14:13:56.728Z,7.51
2018-01-01T14:15:06.985Z,7.52
2018-01-01T14:16:16.853Z,7.49
2018-01-01T14:17:27.255Z,7.52
2018-01-01T14:18:38.659Z,7.44
2018-01-01T14:19:50.073Z,7.39
2018-01-01T14:21:00.308Z,7.34
2018-01-01T14:22:11.350Z,7.31
2018-01-01T14:23:21.757Z,7.37
2018-01-01T14:24:31.957Z,7.34
2018-01-01T14:25:42.417Z,7.28
2018-01-01T14:26:52.922Z,7.21
2018-01-01T14:28:42.826Z,7.21
2018-01-01T14:29:55.172Z,7.26
2018-01-01T14:31:05.576Z,7.24
2018-01-01T14:32:16.838Z,7.24
2018-01-01T14:33:28.648Z,7.29
2018-01-01T14:34:39.930Z,7.24
2018-01-01T14:35:53.294Z,7.17
2018-01-01T14:37:03.279Z,7.28
2018-01-01T14:38:13.455Z,7.21
2018-01-01T14:39:23.625Z,7.29
2018-01-01T14:40:33.625Z,7.24
2018-01-01T14:41:44.095Z,7.26
2018-01-01T14:42:54.064Z,7.24
2018-01-01T14:44:04.050Z,7.17
2018-01-01T14:45:13.968Z,7.26
2018-01-01T14:46:24.146Z,7.22
2018-01-01T14:47:34.344Z,7.26
2018-01-01T14:48:44.187Z,7.22
2018-01-01T14:49:55.350Z,7.29
2018-01-01T14:51:05.527Z,7.37
2018-01-01T14:52:15.579Z,7.43
2018-01-01T14:53:25.872Z,7.37
2018-01-01T14:54:35.783Z,7.37
2018-01-01T14:55:45.941Z,7.4
2018-01-01T14:56:56.140Z,7.34
2018-01-01T14:58:06.320Z,7.37
2018-01-01T14:59:16.495Z,7.31
2018-01-01T15:00:26.658Z,7.36
2018-01-01T15:01:36.876Z,7.34
2018-01-01T15:02:47.071Z,7.21
2018-01-01T15:03:57.278Z,7.31
2018-01-01T15:05:06.962Z,7.2
2018-01-01T15:06:17.151Z,7.28
2018-01-01T15:07:27.380Z,7.28
2018-01-01T15:08:37.689Z,7.2
2018-01-01T15:09:48.054Z,7.21
2018-01-01T15:10:57.894Z,7.18
2018-01-01T15:12:08.137Z,7.17
2018-01-01T15:13:18.357Z,7.24
2018-01-01T15:14:28.537Z,7.24
2018-01-01T15:15:38.864Z,7.17
2018-01-01T15:16:49.200Z,7.17
2018-01-01T15:17:59.606Z,7.1
2018-01-01T15:19:09.785Z,7.06
2018-01-01T15:20:19.985Z,6.97
2018-01-01T15:21:30.065Z,7.03
2018-01-01T15:22:40.026Z,6.99
2018-01-01T15:23:50.224Z,6.95
2018-01-01T15:25:00.439Z,6.92
2018-01-01T15:26:10.666Z,6.85
2018-01-01T15:27:20.844Z,6.84
2018-01-01T15:28:32.019Z,6.72
2018-01-01T15:29:42.461Z,6.69
2018-01-01T15:30:52.445Z,6.75
2018-01-01T15:32:02.725Z,6.71
2018-01-01T15:33:13.239Z,6.64
2018-01-01T15:34:23.496Z,6.57
2018-01-01T15:35:33.784Z,6.63
2018-01-01T15:36:44.075Z,6.62
2018-01-01T15:37:54.043Z,6.6
2018-01-01T15:39:04.316Z,6.49
2018-01-01T15:40:14.597Z,6.57
2018-01-01T15:41:25.599Z,6.56